createdAt,value
2018-01-27T00:00:04.761Z,6.56
2018-01-27T00:01:05.720Z,6.53
2018-01-27T00:02:05.800Z,6.51
2018-01-27T00:03:04.444Z,6.53
2018-01-27T00:04:03.693Z,6.43
2018-01-27T00:05:03.730Z,6.42
2018-01-27T00:06:04.126Z,6.4
2018-01-27T00:07:04.482Z,6.4
2018-01-27T00:08:06.445Z,6.39
2018-01-27T00:09:03.968Z,6.38
2018-01-27T00:10:03.541Z,6.35
2018-01-27T00:11:04.698Z,6.36
2018-01-27T00:12:04.592Z,6.4
2018-01-27T00:13:05.006Z,6.37
2018-01-27T00:14:04.982Z,6.39
2018-01-27T00:15:04.251Z,6.37
2018-01-27T00:16:03.685Z,6.35
2018-01-27T00:17:03.733Z,6.31
2018-01-27T00:18:04.743Z,6.29
2018-01-27T00:19:03.850Z,6.27
2018-01-27T00:20:05.311Z,6.18
2018-01-27T00:21:04.323Z,6.22
2018-01-27T00:22:03.945Z,6.23
2018-01-27T00:23:04.724Z,6.19
2018-01-27T00:24:04.170Z,6.22
2018-01-27T00:25:04.085Z,6.23
2018-01-27T00:26:03.867Z,6.21
2018-01-27T00:27:04.287Z,6.19
2018-01-27T00:28:04.045Z,6.15
2018-01-27T00:29:04.380Z,6.15
2018-01-27T00:30:06.090Z,6.15
2018-01-27T00:31:04.726Z,6.13
2018-01-27T00:32:04.619Z,6.13
2018-01-27T00:33:04.408Z,6.12
2018-01-27T00:34:04.804Z,6.1
2018-01-27T00:35:05.400Z,6.06
2018-01-27T00:36:04.436Z,6.05
2018-01-27T00:37:03.719Z,6.05
2018-01-27T00:38:04.360Z,6.07
2018-01-27T00:39:04.372Z,6.04
2018-01-27T00:40:05.633Z,6.04
2018-01-27T00:41:03.747Z,6.05
2018-01-27T00:42:03.867Z,6.06
2018-01-27T00:43:04.887Z,6.07
2018-01-27T00:44:06.005Z,6.05
2018-01-27T00:45:03.955Z,6.02
2018-01-27T00:46:05.151Z,6.01
2018-01-27T00:47:07.664Z,5.95
2018-01-27T00:48:05.219Z,5.98
2018-01-27T00:49:05.211Z,5.93
2018-01-27T00:50:07.586Z,5.91
2018-01-27T00:51:05.642Z,5.93
2018-01-27T00:52:04.203Z,5.94
2018-01-27T00:53:04.426Z,5.93
2018-01-27T00:54:03.824Z,5.92
2018-01-27T00:55:03.618Z,5.98
2018-01-27T00:56:03.796Z,5.96
2018-01-27T00:57:04.296Z,5.94
2018-01-27T00:58:04.723Z,5.94
2018-01-27T00:59:03.658Z,5.92
2018-01-27T01:00:04.413Z,5.88
2018-01-27T01:01:04.429Z,5.83
2018-01-27T01:02:05.804Z,5.8
2018-01-27T01:03:03.709Z,5.81
2018-01-27T01:04:04.594Z,5.78
2018-01-27T01:05:03.788Z,5.8
2018-01-27T01:06:04.863Z,5.84
2018-01-27T01:07:05.841Z,5.79
2018-01-27T01:08:04.890Z,5.8
2018-01-27T01:09:04.672Z,5.76
2018-01-27T01:10:04.327Z,5.79
2018-01-27T01:11:03.680Z,5.77
2018-01-27T01:12:05.530Z,5.78
2018-01-27T01:13:05.939Z,5.75
2018-01-27T01:14:04.488Z,5.78
2018-01-27T01:15:04.570Z,5.8
2018-01-27T01:16:04.335Z,5.76
2018-01-27T01:17:03.920Z,5.75
2018-01-27T01:18:03.433Z,5.71
2018-01-27T01:19:04.406Z,5.75
2018-01-27T01:20:04.465Z,5.71
2018-01-27T01:21:03.541Z,5.76
2018-01-27T01:22:03.962Z,5.81
2018-01-27T01:23:03.753Z,5.77
2018-01-27T01:24:03.675Z,5.78
2018-01-27T01:25:03.984Z,5.77
2018-01-27T01:26:03.845Z,5.79
2018-01-27T01:27:03.678Z,5.79
2018-01-27T01:28:04.928Z,5.79
2018-01-27T01:29:04.588Z,5.78
2018-01-27T01:30:03.867Z,5.85
2018-01-27T01:31:03.668Z,5.82
2018-01-27T01:32:04.995Z,5.85
2018-01-27T01:33:04.377Z,5.87
2018-01-27T01:34:04.289Z,5.88
2018-01-27T01:35:03.783Z,5.85
2018-01-27T01:36:05.373Z,5.89
2018-01-27T01:37:04.671Z,5.88
2018-01-27T01:38:04.919Z,5.88
2018-01-27T01:39:03.650Z,5.89
2018-01-27T01:40:03.725Z,5.85
2018-01-27T01:41:03.842Z,5.87
2018-01-27T01:42:03.831Z,5.86
2018-01-27T01:43:05.876Z,5.88
2018-01-27T01:44:05.461Z,5.89
2018-01-27T01:45:04.749Z,5.88
2018-01-27T01:46:03.759Z,5.91
2018-01-27T01:47:05.504Z,5.86
2018-01-27T01:48:03.793Z,5.84
2018-01-27T01:49:03.831Z,5.79
2018-01-27T01:50:04.625Z,5.78
2018-01-27T01:51:05.066Z,5.78
2018-01-27T01:52:04.739Z,5.83
2018-01-27T01:53:03.737Z,5.82
2018-01-27T01:54:06.257Z,5.83
2018-01-27T01:55:03.887Z,5.8
2018-01-27T01:56:03.772Z,5.78
2018-01-27T01:57:03.852Z,5.81
2018-01-27T01:58:03.739Z,5.79
2018-01-27T01:59:04.031Z,5.82
2018-01-27T02:00:05.149Z,5.81
2018-01-27T02:01:04.214Z,5.81
2018-01-27T02:02:04.450Z,5.81
2018-01-27T02:03:03.792Z,5.83
2018-01-27T02:04:05.215Z,5.83
2018-01-27T02:05:03.869Z,5.83
2018-01-27T02:06:03.895Z,5.92
2018-01-27T02:07:04.026Z,5.89
2018-01-27T02:08:05.046Z,5.87
2018-01-27T02:09:04.639Z,5.87
2018-01-27T02:10:04.265Z,5.87
2018-01-27T02:11:03.695Z,5.83
2018-01-27T02:12:04.584Z,5.81
2018-01-27T02:13:03.803Z,5.82
2018-01-27T02:14:04.726Z,5.85
2018-01-27T02:15:03.910Z,5.83
2018-01-27T02:16:04.509Z,5.82
2018-01-27T02:17:05.291Z,5.83
2018-01-27T02:18:04.507Z,5.86
2018-01-27T02:19:04.422Z,5.83
2018-01-27T02:20:04.732Z,5.83
2018-01-27T02:21:05.300Z,5.83
2018-01-27T02:22:04.471Z,5.79
2018-01-27T02:23:04.969Z,5.8
2018-01-27T02:24:05.577Z,5.8
2018-01-27T02:25:03.928Z,5.76
2018-01-27T02:26:05.007Z,5.85
2018-01-27T02:27:03.943Z,5.85
2018-01-27T02:28:03.747Z,5.82
2018-01-27T02:29:04.751Z,5.78
2018-01-27T02:30:03.983Z,5.78
2018-01-27T02:31:05.616Z,5.81
2018-01-27T02:32:04.729Z,5.84
2018-01-27T02:33:03.828Z,5.84
2018-01-27T02:34:03.900Z,5.84
2018-01-27T02:35:04.547Z,5.88
2018-01-27T02:36:04.030Z,5.86
2018-01-27T02:37:05.523Z,5.85
2018-01-27T02:38:04.621Z,5.87
2018-01-27T02:39:03.948Z,5.89
2018-01-27T02:40:04.398Z,5.82
2018-01-27T02:41:03.936Z,5.9
2018-01-27T02:42:03.917Z,5.8
2018-01-27T02:43:04.713Z,5.79
2018-01-27T02:44:04.649Z,5.8
2018-01-27T02:45:04.842Z,5.8
2018-01-27T02:46:03.848Z,5.78
2018-01-27T02:47:03.997Z,5.75
2018-01-27T02:48:04.072Z,5.68
2018-01-27T02:49:04.246Z,5.72
2018-01-27T02:50:04.674Z,5.72
2018-01-27T02:51:05.582Z,5.69
2018-01-27T02:52:04.603Z,5.73
2018-01-27T02:53:04.006Z,5.74
2018-01-27T02:54:03.818Z,5.8
2018-01-27T02:55:03.805Z,5.79
2018-01-27T02:56:03.936Z,5.81
2018-01-27T02:57:04.656Z,5.77
2018-01-27T02:58:03.876Z,5.77
2018-01-27T02:59:03.964Z,5.74
2018-01-27T03:00:04.048Z,5.71
2018-01-27T03:01:03.973Z,5.63
2018-01-27T03:02:04.040Z,5.61
2018-01-27T03:03:05.073Z,5.59
2018-01-27T03:04:04.708Z,5.61
2018-01-27T03:05:04.405Z,5.58
2018-01-27T03:06:03.894Z,5.6
2018-01-27T03:07:03.733Z,5.66
2018-01-27T03:08:03.997Z,5.68
2018-01-27T03:09:04.369Z,5.69
2018-01-27T03:10:03.715Z,5.65
2018-01-27T03:11:03.723Z,5.72
2018-01-27T03:12:03.747Z,5.71
2018-01-27T03:13:04.016Z,5.76
2018-01-27T03:14:04.010Z,5.77
2018-01-27T03:15:04.167Z,5.73
2018-01-27T03:16:03.734Z,5.77
2018-01-27T03:17:03.971Z,5.71
2018-01-27T03:18:03.761Z,5.74
2018-01-27T03:19:03.957Z,5.76
2018-01-27T03:20:03.659Z,5.78
2018-01-27T03:21:04.406Z,5.76
2018-01-27T03:22:04.710Z,5.82
2018-01-27T03:23:04.625Z,5.83
2018-01-27T03:24:04.067Z,5.83
2018-01-27T03:25:04.465Z,5.89
2018-01-27T03:26:04.675Z,5.89
2018-01-27T03:27:04.611Z,5.87
2018-01-27T03:28:04.566Z,5.91
2018-01-27T03:29:04.016Z,5.91
2018-01-27T03:30:04.990Z,5.91
2018-01-27T03:31:03.920Z,5.89
2018-01-27T03:32:04.725Z,5.96
2018-01-27T03:33:04.574Z,5.95
2018-01-27T03:34:04.134Z,5.94
2018-01-27T03:35:04.780Z,5.94
2018-01-27T03:36:05.333Z,5.93
2018-01-27T03:37:04.017Z,5.99
2018-01-27T03:38:04.731Z,5.93
2018-01-27T03:39:04.899Z,5.91
2018-01-27T03:40:03.900Z,5.91
2018-01-27T03:41:04.144Z,5.86
2018-01-27T03:42:04.266Z,5.91
2018-01-27T03:43:04.404Z,5.9
2018-01-27T03:44:06.028Z,5.87
2018-01-27T03:45:04.353Z,5.88
2018-01-27T03:46:04.240Z,5.89
2018-01-27T03:47:05.231Z,5.85
2018-01-27T03:48:05.574Z,5.9
2018-01-27T03:49:04.945Z,5.91
2018-01-27T03:50:04.436Z,5.88
2018-01-27T03:51:03.964Z,5.83
2018-01-27T03:52:07.488Z,5.79
2018-01-27T03:53:04.148Z,5.84
2018-01-27T03:54:05.354Z,5.86
2018-01-27T03:55:06.371Z,5.8
2018-01-27T03:56:05.656Z,5.82
2018-01-27T03:57:05.961Z,5.8
2018-01-27T03:58:06.987Z,5.8
2018-01-27T03:59:04.129Z,5.81
2018-01-27T04:00:04.497Z,5.76
2018-01-27T04:01:04.752Z,5.77
2018-01-27T04:02:04.030Z,5.76
2018-01-27T04:03:05.056Z,5.76
2018-01-27T04:04:04.007Z,5.73
2018-01-27T04:06:04.075Z,5.72
2018-01-27T04:07:06.941Z,5.68
2018-01-27T04:08:09.080Z,5.68
2018-01-27T04:09:04.549Z,5.67
2018-01-27T04:10:04.878Z,5.71
2018-01-27T04:11:03.862Z,5.71
2018-01-27T04:12:04.895Z,5.7
2018-01-27T04:13:05.662Z,5.7
2018-01-27T04:14:05.810Z,5.69
2018-01-27T04:15:04.871Z,5.72
2018-01-27T04:16:04.072Z,5.73
2018-01-27T04:17:05.665Z,5.7
2018-01-27T04:18:04.780Z,5.69
2018-01-27T04:19:04.387Z,5.68
2018-01-27T04:20:05.072Z,5.7
2018-01-27T04:21:07.146Z,5.67
2018-01-27T04:22:06.508Z,5.66
2018-01-27T04:23:05.146Z,5.63
2018-01-27T04:24:04.307Z,5.64
2018-01-27T04:25:03.922Z,5.63
2018-01-27T04:26:04.310Z,5.63
2018-01-27T04:27:04.760Z,5.64
2018-01-27T04:28:03.962Z,5.64
2018-01-27T04:29:04.407Z,5.67
2018-01-27T04:30:04.063Z,5.7
2018-01-27T04:31:05.507Z,5.73
2018-01-27T04:32:05.680Z,5.77
2018-01-27T04:33:05.358Z,5.8
2018-01-27T04:34:06.163Z,5.74
2018-01-27T04:35:04.199Z,5.77
2018-01-27T04:36:04.218Z,5.78
2018-01-27T04:37:04.579Z,5.73
2018-01-27T04:38:04.319Z,5.67
2018-01-27T04:39:04.297Z,5.72
2018-01-27T04:40:04.457Z,5.76
2018-01-27T04:41:03.821Z,5.77
2018-01-27T04:42:06.092Z,5.77
2018-01-27T04:43:04.777Z,5.7
2018-01-27T04:44:05.384Z,5.73
2018-01-27T04:45:04.356Z,5.78
2018-01-27T04:46:04.799Z,5.78
2018-01-27T04:47:04.524Z,5.81
2018-01-27T04:48:04.285Z,5.76
2018-01-27T04:49:04.062Z,5.72
2018-01-27T04:50:06.495Z,5.76
2018-01-27T04:51:07.335Z,5.8
2018-01-27T04:52:10.166Z,5.72
2018-01-27T04:53:04.173Z,5.65
2018-01-27T04:54:06.197Z,5.69
2018-01-27T04:55:07.724Z,5.68
2018-01-27T04:56:07.121Z,5.74
2018-01-27T04:57:06.615Z,5.71
2018-01-27T04:58:06.300Z,5.67
2018-01-27T04:59:08.200Z,5.71
2018-01-27T05:00:07.399Z,5.73
2018-01-27T05:01:06.835Z,5.72
2018-01-27T05:02:18.378Z,5.72
2018-01-27T05:03:06.660Z,5.78
2018-01-27T05:04:06.510Z,5.78
2018-01-27T05:05:05.067Z,5.76
2018-01-27T05:06:05.904Z,5.77
2018-01-27T05:07:09.837Z,5.56
2018-01-27T05:08:08.577Z,5.62
2018-01-27T05:09:13.247Z,5.63
2018-01-27T05:10:06.662Z,5.67
2018-01-27T05:11:05.041Z,5.7
2018-01-27T05:12:05.191Z,5.7
2018-01-27T05:13:07.655Z,5.73
2018-01-27T05:14:07.547Z,5.62
2018-01-27T05:15:07.158Z,5.53
2018-01-27T05:16:05.832Z,5.46
2018-01-27T05:17:05.255Z,5.51
2018-01-27T05:18:05.265Z,5.47
2018-01-27T05:19:07.855Z,5.57
2018-01-27T05:20:06.686Z,5.64
2018-01-27T05:21:08.134Z,5.62
2018-01-27T05:22:07.119Z,5.63
2018-01-27T05:23:06.519Z,5.6
2018-01-27T05:24:05.714Z,5.6
2018-01-27T05:25:09.979Z,5.61
2018-01-27T05:26:06.607Z,5.61
2018-01-27T05:27:05.360Z,5.59
2018-01-27T05:28:08.405Z,5.57
2018-01-27T05:29:06.659Z,5.57
2018-01-27T05:30:06.903Z,5.54
2018-01-27T05:31:05.959Z,5.59
2018-01-27T05:32:07.059Z,5.58
2018-01-27T05:33:06.897Z,5.62
2018-01-27T05:34:06.017Z,5.67
2018-01-27T05:35:05.689Z,5.71
2018-01-27T05:36:05.656Z,5.67
2018-01-27T05:37:05.659Z,5.64
2018-01-27T05:38:05.065Z,5.63
2018-01-27T05:39:04.673Z,5.62
2018-01-27T05:40:06.727Z,5.61
2018-01-27T05:41:04.663Z,5.59
2018-01-27T05:42:08.317Z,5.54
2018-01-27T05:43:06.819Z,5.6
2018-01-27T05:44:07.991Z,5.61
2018-01-27T05:45:07.918Z,5.6
2018-01-27T05:46:05.775Z,5.58
2018-01-27T05:47:04.868Z,5.59
2018-01-27T05:48:05.822Z,5.61
2018-01-27T05:49:06.045Z,5.6
2018-01-27T05:50:04.412Z,5.55
2018-01-27T05:51:04.688Z,5.64
2018-01-27T05:52:04.080Z,5.53
2018-01-27T05:53:04.078Z,5.55
2018-01-27T05:54:04.221Z,5.54
2018-01-27T05:55:04.242Z,5.43
2018-01-27T05:56:04.096Z,5.35
2018-01-27T05:59:04.357Z,5.34
2018-01-27T06:00:03.982Z,5.32
2018-01-27T06:01:04.151Z,5.36
2018-01-27T06:02:04.113Z,5.44
2018-01-27T06:03:04.034Z,5.34
2018-01-27T06:04:04.202Z,5.33
2018-01-27T06:05:03.957Z,5.27
2018-01-27T06:06:04.112Z,5.22
2018-01-27T06:07:04.154Z,5.27
2018-01-27T06:08:04.095Z,5.35
2018-01-27T06:09:04.102Z,5.35
2018-01-27T06:10:03.894Z,5.34
2018-01-27T06:11:04.162Z,5.29
2018-01-27T06:12:04.120Z,5.34
2018-01-27T06:13:04.050Z,5.31
2018-01-27T06:14:04.224Z,5.25
2018-01-27T06:15:03.939Z,5.36
2018-01-27T06:16:03.942Z,5.23
2018-01-27T06:17:04.045Z,5.27
2018-01-27T06:18:03.986Z,5.21
2018-01-27T06:19:04.021Z,5.14
2018-01-27T06:20:03.972Z,5.28
2018-01-27T06:21:03.966Z,5.28
2018-01-27T06:22:04.179Z,5.31
2018-01-27T06:23:04.107Z,5.28
2018-01-27T06:24:04.216Z,5.34
2018-01-27T06:25:04.250Z,5.31
2018-01-27T06:26:04.041Z,5.37
2018-01-27T06:27:04.036Z,5.35
2018-01-27T06:28:04.154Z,5.37
2018-01-27T06:29:04.127Z,5.4
2018-01-27T06:30:04.181Z,5.39
2018-01-27T06:31:04.100Z,5.4
2018-01-27T06:32:04.147Z,5.38
2018-01-27T06:33:04.143Z,5.37
2018-01-27T06:34:04.207Z,5.37
2018-01-27T06:35:04.045Z,5.37
2018-01-27T06:36:04.341Z,5.38
2018-01-27T06:37:04.333Z,5.43
2018-01-27T06:38:04.604Z,5.37
2018-01-27T06:39:04.010Z,5.3
2018-01-27T06:40:06.316Z,5.24
2018-01-27T06:41:04.227Z,5.31
2018-01-27T06:42:04.235Z,5.36
2018-01-27T06:43:04.382Z,5.39
2018-01-27T06:44:04.162Z,5.39
2018-01-27T06:45:04.190Z,5.42
2018-01-27T06:46:04.252Z,5.41
2018-01-27T06:47:04.286Z,5.44
2018-01-27T06:48:04.163Z,5.49
2018-01-27T06:49:04.156Z,5.49
2018-01-27T06:50:04.587Z,5.51
2018-01-27T06:51:04.313Z,5.47
2018-01-27T06:52:04.407Z,5.48
2018-01-27T06:53:03.396Z,5.46
2018-01-27T06:54:03.461Z,5.47
2018-01-27T06:55:03.316Z,5.51
2018-01-27T06:56:03.390Z,5.48
2018-01-27T06:57:03.504Z,5.56
2018-01-27T06:58:03.412Z,5.55
2018-01-27T06:59:03.354Z,5.52
2018-01-27T07:00:03.324Z,5.48
2018-01-27T07:01:03.461Z,5.54
2018-01-27T07:02:03.672Z,5.55
2018-01-27T07:03:03.331Z,5.51
2018-01-27T07:04:03.503Z,5.52
2018-01-27T07:05:03.321Z,5.51
2018-01-27T07:06:03.688Z,5.51
2018-01-27T07:07:03.589Z,5.53
2018-01-27T07:08:03.466Z,5.56
2018-01-27T07:09:03.416Z,5.52
2018-01-27T07:10:03.522Z,5.5
2018-01-27T07:11:03.335Z,5.53
2018-01-27T07:12:03.537Z,5.54
2018-01-27T07:13:03.597Z,5.41
2018-01-27T07:14:03.449Z,5.43
2018-01-27T07:15:03.570Z,5.42
2018-01-27T07:16:03.564Z,5.48
2018-01-27T07:17:03.451Z,5.52
2018-01-27T07:18:03.528Z,5.37
2018-01-27T07:19:03.620Z,5.33
2018-01-27T07:20:03.697Z,5.37
2018-01-27T07:21:03.481Z,5.23
2018-01-27T07:22:03.309Z,5.35
2018-01-27T07:23:03.625Z,5.38
2018-01-27T07:24:03.528Z,5.45
2018-01-27T07:25:03.643Z,5.45
2018-01-27T07:26:03.514Z,5.5
2018-01-27T07:27:03.358Z,5.44
2018-01-27T07:28:03.478Z,5.48
2018-01-27T07:29:03.624Z,5.48
2018-01-27T07:30:03.643Z,5.36
2018-01-27T07:31:03.751Z,5.43
2018-01-27T07:32:03.665Z,5.42
2018-01-27T07:33:03.375Z,5.46
2018-01-27T07:34:03.453Z,5.45
2018-01-27T07:35:03.600Z,5.48
2018-01-27T07:36:03.498Z,5.41
2018-01-27T07:37:03.517Z,5.39
2018-01-27T07:38:03.775Z,5.43
2018-01-27T07:39:03.669Z,5.44
2018-01-27T07:40:04.438Z,5.39
2018-01-27T07:41:03.829Z,5.35
2018-01-27T07:42:03.461Z,5.3
2018-01-27T07:43:03.585Z,5.17
2018-01-27T07:44:03.554Z,5.05
2018-01-27T07:45:03.806Z,5.07
2018-01-27T07:46:03.402Z,4.98
2018-01-27T07:47:03.372Z,4.91
2018-01-27T07:48:03.660Z,4.98
2018-01-27T07:49:03.588Z,4.98
2018-01-27T07:50:03.515Z,4.99
2018-01-27T07:51:03.387Z,5.01
2018-01-27T07:52:03.474Z,5.11
2018-01-27T07:53:03.661Z,5.15
2018-01-27T07:54:03.466Z,5.07
2018-01-27T07:55:03.557Z,5.01
2018-01-27T07:56:03.579Z,4.94
2018-01-27T07:57:03.611Z,5.03
2018-01-27T07:58:03.754Z,5.08
2018-01-27T07:59:03.577Z,5.07
2018-01-27T08:00:03.639Z,4.97
2018-01-27T08:01:03.705Z,5.01
2018-01-27T08:02:03.695Z,5.04
2018-01-27T08:03:03.672Z,5
2018-01-27T08:04:03.437Z,4.99
2018-01-27T08:05:03.762Z,4.94
2018-01-27T08:06:03.605Z,4.93
2018-01-27T08:07:03.640Z,4.96
2018-01-27T08:08:03.599Z,4.97
2018-01-27T08:09:03.594Z,5.04
2018-01-27T08:10:03.644Z,5.03
2018-01-27T08:11:03.471Z,5
2018-01-27T08:12:03.725Z,5.02
2018-01-27T08:13:03.688Z,5
2018-01-27T08:14:03.670Z,5
2018-01-27T08:15:03.535Z,4.97
2018-01-27T08:16:03.684Z,4.84
2018-01-27T08:17:03.713Z,4.92
2018-01-27T08:18:03.410Z,4.95
2018-01-27T08:19:03.576Z,4.94
2018-01-27T08:20:03.609Z,4.77
2018-01-27T08:21:04.256Z,4.76
2018-01-27T08:22:03.759Z,4.71
2018-01-27T08:23:03.608Z,4.77
2018-01-27T08:24:03.747Z,4.57
2018-01-27T08:25:03.676Z,4.66
2018-01-27T08:26:03.497Z,4.6
2018-01-27T08:27:03.658Z,4.62
2018-01-27T08:28:03.943Z,4.52
2018-01-27T08:29:03.642Z,4.62
2018-01-27T08:30:03.852Z,4.61
2018-01-27T08:31:03.707Z,4.6
2018-01-27T08:32:03.784Z,4.66
2018-01-27T08:33:03.751Z,4.71
2018-01-27T08:36:17.801Z,4.54
2018-01-27T08:37:03.650Z,4.61
2018-01-27T08:38:03.581Z,4.68
2018-01-27T08:39:03.791Z,4.64
2018-01-27T08:40:03.596Z,4.68
2018-01-27T08:41:03.658Z,4.7
2018-01-27T08:42:03.765Z,4.58
2018-01-27T08:43:03.765Z,4.59
2018-01-27T08:44:03.820Z,4.58
2018-01-27T08:45:03.623Z,4.49
2018-01-27T08:46:03.777Z,4.46
2018-01-27T08:47:03.711Z,4.56
2018-01-27T08:48:03.701Z,4.54
2018-01-27T08:49:03.698Z,4.51
2018-01-27T08:50:03.637Z,4.6
2018-01-27T08:51:03.701Z,4.68
2018-01-27T08:52:03.753Z,4.65
2018-01-27T08:53:04.553Z,4.74
2018-01-27T08:54:05.307Z,4.57
2018-01-27T08:55:04.845Z,4.71
2018-01-27T08:56:04.885Z,4.81
2018-01-27T08:57:04.922Z,4.81
2018-01-27T08:58:06.165Z,4.68
2018-01-27T08:59:04.962Z,4.7
2018-01-27T09:00:04.286Z,4.74
2018-01-27T09:01:04.785Z,4.71
2018-01-27T09:02:04.993Z,4.46
2018-01-27T09:03:04.372Z,4.73
2018-01-27T09:04:04.931Z,4.61
2018-01-27T09:05:04.831Z,4.64
2018-01-27T09:06:28.805Z,4.83
2018-01-27T09:07:03.720Z,4.7
2018-01-27T09:08:03.593Z,4.67
2018-01-27T09:09:03.854Z,4.79
2018-01-27T09:10:20.013Z,4.83
2018-01-27T09:11:20.097Z,4.84
2018-01-27T09:13:19.967Z,4.8
2018-01-27T09:14:20.037Z,4.88
2018-01-27T09:15:20.030Z,4.76
2018-01-27T09:16:20.140Z,4.78
2018-01-27T09:17:20.054Z,4.76
2018-01-27T09:18:20.017Z,4.91
2018-01-27T09:19:19.907Z,4.91
2018-01-27T09:20:19.762Z,4.91
2018-01-27T09:21:19.792Z,4.82
2018-01-27T09:22:20.310Z,4.83
2018-01-27T09:23:19.960Z,4.86
2018-01-27T09:24:18.844Z,4.84
2018-01-27T09:25:18.861Z,4.67
2018-01-27T09:26:18.831Z,4.83
2018-01-27T09:27:19.190Z,4.88
2018-01-27T09:28:19.056Z,4.74
2018-01-27T09:29:18.622Z,4.69
2018-01-27T09:30:19.205Z,4.54
2018-01-27T09:31:18.837Z,4.77
2018-01-27T09:32:18.745Z,4.79
2018-01-27T09:33:18.725Z,4.91
2018-01-27T09:34:18.681Z,4.87
2018-01-27T09:35:18.930Z,4.85
2018-01-27T09:36:18.831Z,4.89
2018-01-27T09:37:18.914Z,4.82
2018-01-27T09:38:18.890Z,4.69
2018-01-27T09:39:18.808Z,4.76
2018-01-27T09:40:18.941Z,4.83
2018-01-27T09:41:18.844Z,4.85
2018-01-27T09:42:18.851Z,4.96
2018-01-27T09:43:18.948Z,4.82
2018-01-27T09:44:18.830Z,4.83
2018-01-27T09:45:18.789Z,5
2018-01-27T09:46:18.694Z,4.95
2018-01-27T09:47:18.929Z,4.89
2018-01-27T09:48:19.930Z,4.92
2018-01-27T09:49:18.961Z,4.99
2018-01-27T09:50:20.952Z,4.96
2018-01-27T09:51:18.926Z,4.87
2018-01-27T09:52:19.009Z,4.91
2018-01-27T09:53:18.784Z,4.95
2018-01-27T09:54:18.939Z,5.05
2018-01-27T09:55:18.944Z,5.1
2018-01-27T09:56:18.844Z,5.06
2018-01-27T09:57:50.494Z,5.07
2018-01-27T09:58:22.754Z,5.07
2018-01-27T09:59:22.819Z,5.09
2018-01-27T10:00:21.544Z,5.1
2018-01-27T10:01:21.201Z,5.12
2018-01-27T10:02:22.509Z,5.1
2018-01-27T10:03:20.429Z,5.15
2018-01-27T10:04:20.165Z,5.11
2018-01-27T10:05:22.754Z,5.13
2018-01-27T10:06:21.117Z,5.1
2018-01-27T10:07:19.949Z,5.06
2018-01-27T10:08:19.854Z,5.12
2018-01-27T10:09:49.264Z,5.15
2018-01-27T10:10:23.577Z,5.17
2018-01-27T10:11:30.304Z,5.18
2018-01-27T10:12:24.316Z,5.12
2018-01-27T10:13:21.556Z,5.12
2018-01-27T10:14:20.065Z,5.2
2018-01-27T10:15:19.696Z,5.21
2018-01-27T10:16:23.209Z,5.15
2018-01-27T10:17:20.600Z,5.11
2018-01-27T10:18:18.590Z,5.03
2018-01-27T10:19:49.116Z,4.83
2018-01-27T10:20:20.027Z,4.89
2018-01-27T10:21:19.872Z,4.99
2018-01-27T10:22:19.792Z,4.96
2018-01-27T10:23:19.424Z,4.93
2018-01-27T10:24:18.682Z,4.87
2018-01-27T10:25:24.315Z,4.92
2018-01-27T10:26:27.240Z,4.92
2018-01-27T10:27:20.373Z,4.75
2018-01-27T10:28:24.762Z,4.77
2018-01-27T10:29:20.572Z,4.87
2018-01-27T10:30:22.118Z,4.77
2018-01-27T10:31:19.068Z,4.84
2018-01-27T10:32:21.706Z,4.92
2018-01-27T10:33:19.846Z,4.9
2018-01-27T10:34:19.571Z,5.02
2018-01-27T10:35:21.901Z,5.03
2018-01-27T10:36:22.624Z,5.08
2018-01-27T10:37:20.371Z,5.09
2018-01-27T10:38:20.826Z,5.1
2018-01-27T10:39:18.490Z,5.21
2018-01-27T10:40:19.099Z,5.01
2018-01-27T10:41:19.698Z,5.01
2018-01-27T10:42:20.722Z,5.02
2018-01-27T10:43:19.296Z,5.08
2018-01-27T10:44:21.835Z,5.13
2018-01-27T10:45:20.942Z,5.19
2018-01-27T10:46:18.458Z,5.03
2018-01-27T10:47:19.755Z,5.07
2018-01-27T10:48:19.028Z,5.18
2018-01-27T10:49:21.298Z,4.92
2018-01-27T10:50:21.077Z,4.89
2018-01-27T10:51:20.625Z,4.88
2018-01-27T10:52:20.452Z,4.9
2018-01-27T10:53:20.522Z,4.72
2018-01-27T10:54:21.318Z,4.9
2018-01-27T10:55:19.521Z,4.92
2018-01-27T10:56:19.017Z,4.76
2018-01-27T10:57:20.250Z,4.71
2018-01-27T10:58:21.302Z,4.82
2018-01-27T10:59:26.615Z,4.94
2018-01-27T11:00:22.818Z,4.91
2018-01-27T11:01:20.411Z,4.82
2018-01-27T11:02:18.877Z,4.79
2018-01-27T11:03:18.709Z,4.83
2018-01-27T11:04:21.440Z,4.82
2018-01-27T11:05:19.534Z,4.8
2018-01-27T11:06:18.814Z,4.73
2018-01-27T11:07:24.845Z,4.59
2018-01-27T11:08:22.772Z,4.59
2018-01-27T11:09:21.130Z,4.56
2018-01-27T11:10:20.518Z,4.61
2018-01-27T11:11:21.725Z,4.68
2018-01-27T11:12:19.165Z,4.63
2018-01-27T11:13:22.399Z,4.72
2018-01-27T11:14:20.076Z,4.64
2018-01-27T11:15:19.722Z,4.75
2018-01-27T11:16:19.771Z,4.77
2018-01-27T11:17:22.963Z,4.63
2018-01-27T11:18:20.172Z,4.73
2018-01-27T11:19:20.021Z,4.78
2018-01-27T11:20:20.572Z,4.72
2018-01-27T11:21:20.432Z,4.74
2018-01-27T11:22:19.347Z,4.74
2018-01-27T11:23:22.463Z,4.68
2018-01-27T11:24:19.823Z,4.74
2018-01-27T11:25:19.273Z,4.79
2018-01-27T11:26:21.203Z,4.95
2018-01-27T11:27:23.697Z,4.96
2018-01-27T11:28:24.164Z,4.94
2018-01-27T11:29:28.682Z,4.97
2018-01-27T11:30:19.690Z,4.9
2018-01-27T11:31:22.315Z,4.88
2018-01-27T11:32:20.542Z,4.95
2018-01-27T11:33:20.249Z,4.95
2018-01-27T11:34:30.978Z,4.98
2018-01-27T11:35:20.881Z,5.03
2018-01-27T11:36:21.840Z,5.01
2018-01-27T11:37:26.331Z,4.98
2018-01-27T11:38:18.555Z,4.96
2018-01-27T11:39:18.470Z,5.02
2018-01-27T11:40:18.835Z,4.89
2018-01-27T11:41:18.551Z,4.96
2018-01-27T11:42:18.711Z,4.93
2018-01-27T11:43:19.025Z,4.7
2018-01-27T11:44:18.917Z,4.73
2018-01-27T11:45:18.813Z,4.85
2018-01-27T11:46:19.100Z,4.88
2018-01-27T11:47:18.784Z,4.88
2018-01-27T11:48:18.594Z,4.92
2018-01-27T11:49:18.729Z,4.92
2018-01-27T11:50:18.789Z,4.98
2018-01-27T11:51:19.014Z,4.98
2018-01-27T11:52:18.856Z,4.98
2018-01-27T11:53:18.809Z,4.9
2018-01-27T11:54:18.713Z,4.79
2018-01-27T11:55:19.001Z,4.72
2018-01-27T11:56:18.857Z,4.81
2018-01-27T11:57:18.884Z,4.87
2018-01-27T11:58:18.701Z,4.93
2018-01-27T11:59:18.721Z,4.96
2018-01-27T12:00:18.680Z,4.97
2018-01-27T12:01:18.780Z,4.91
2018-01-27T12:02:18.693Z,4.91
2018-01-27T12:03:18.851Z,4.95
2018-01-27T12:04:18.604Z,4.95
2018-01-27T12:05:18.983Z,4.94
2018-01-27T12:06:18.626Z,4.89
2018-01-27T12:07:19.046Z,4.92
2018-01-27T12:08:19.004Z,4.96
2018-01-27T12:09:18.736Z,4.94
2018-01-27T12:10:19.307Z,4.99
2018-01-27T12:11:18.870Z,5.01
2018-01-27T12:12:18.775Z,4.96
2018-01-27T12:13:18.804Z,4.98
2018-01-27T12:14:18.651Z,5.01
2018-01-27T12:15:18.837Z,5.02
2018-01-27T12:16:18.936Z,5.07
2018-01-27T12:17:18.822Z,5.14
2018-01-27T12:18:18.849Z,5.1
2018-01-27T12:19:18.878Z,5.07
2018-01-27T12:20:18.678Z,5.03
2018-01-27T12:21:18.992Z,5.08
2018-01-27T12:22:18.858Z,5.07
2018-01-27T12:23:18.952Z,5.08
2018-01-27T12:24:18.834Z,5.09
2018-01-27T12:25:18.715Z,5.06
2018-01-27T12:26:18.808Z,5.09
2018-01-27T12:27:18.963Z,5.08
2018-01-27T12:30:19.224Z,5.15
2018-01-27T12:31:18.912Z,5.19
2018-01-27T12:32:18.875Z,5.05
2018-01-27T12:33:19.028Z,4.98
2018-01-27T12:34:18.927Z,5.05
2018-01-27T12:35:18.960Z,5.12
2018-01-27T12:36:18.924Z,5.13
2018-01-27T12:37:18.863Z,5.17
2018-01-27T12:38:18.632Z,5.15
2018-01-27T12:39:18.980Z,5.15
2018-01-27T12:40:18.894Z,5.11
2018-01-27T12:41:18.810Z,5.15
2018-01-27T12:42:18.865Z,5.17
2018-01-27T12:43:18.753Z,5.13
2018-01-27T12:44:18.819Z,5.13
2018-01-27T12:45:18.937Z,5.04
2018-01-27T12:46:18.823Z,5.02
2018-01-27T12:47:18.873Z,5.05
2018-01-27T12:48:18.836Z,5.13
2018-01-27T12:49:18.920Z,5.19
2018-01-27T12:50:18.756Z,5.21
2018-01-27T12:51:18.857Z,5.19
2018-01-27T12:52:19.182Z,5.21
2018-01-27T12:53:19.124Z,5.2
2018-01-27T12:54:19.111Z,5.2
2018-01-27T12:55:19.035Z,5.18
2018-01-27T12:56:18.901Z,5.19
2018-01-27T12:57:19.103Z,5.17
2018-01-27T12:58:19.064Z,5.24
2018-01-27T12:59:18.875Z,5.25
2018-01-27T13:00:19.146Z,5.24
2018-01-27T13:01:19.051Z,5.27
2018-01-27T13:02:19.056Z,5.3
2018-01-27T13:03:19.258Z,5.24
2018-01-27T13:04:19.125Z,5.16
2018-01-27T13:05:19.065Z,5.19
2018-01-27T13:06:19.189Z,5.19
2018-01-27T13:07:19.091Z,5.16
2018-01-27T13:08:18.975Z,5.17
2018-01-27T13:09:18.992Z,5.16
2018-01-27T13:10:18.903Z,5.24
2018-01-27T13:11:19.008Z,5.3
2018-01-27T13:12:18.846Z,5.17
2018-01-27T13:13:18.915Z,5.13
2018-01-27T13:14:18.847Z,5.12
2018-01-27T13:15:21.605Z,5.07
2018-01-27T13:16:19.065Z,5.13
2018-01-27T13:17:19.084Z,5.13
2018-01-27T13:18:19.002Z,5.14
2018-01-27T13:19:19.052Z,5.26
2018-01-27T13:20:19.075Z,5.2
2018-01-27T13:21:19.212Z,5.28
2018-01-27T13:22:19.042Z,5.26
2018-01-27T13:23:19.087Z,5.24
2018-01-27T13:24:19.019Z,5.23
2018-01-27T13:25:19.094Z,5.26
2018-01-27T13:26:18.941Z,5.24
2018-01-27T13:27:23.121Z,5.24
2018-01-27T13:28:18.885Z,5.27
2018-01-27T13:29:19.140Z,5.27